sensor_id;sensor_type;location;lat;lon;timestamp;pressure;altitude;pressure_sealevel;temperature;humidity
80934;BME280;70392;51.144;17.050;2023-08-06T00:01:33;99330.15;;;15.92;91.40
80934;BME280;70392;51.144;17.050;2023-08-06T00:03:51;99325.40;;;15.94;91.56
80934;BME280;70392;51.144;17.050;2023-08-06T00:06:07;99326.64;;;15.98;91.44
80934;BME280;70392;51.144;17.050;2023-08-06T00:08:27;99326.18;;;15.93;91.38
80934;BME280;70392;51.144;17.050;2023-08-06T00:10:43;99310.01;;;15.86;91.49
80934;BME280;70392;51.144;17.050;2023-08-06T00:13:01;99305.79;;;15.87;91.59
80934;BME280;70392;51.144;17.050;2023-08-06T00:15:22;99298.13;;;15.86;91.65
80934;BME280;70392;51.144;17.050;2023-08-06T00:17:38;99298.47;;;15.80;91.63
80934;BME280;70392;51.144;17.050;2023-08-06T00:19:57;99301.84;;;15.88;91.61
80934;BME280;70392;51.144;17.050;2023-08-06T00:22:14;99293.96;;;15.94;91.70
80934;BME280;70392;51.144;17.050;2023-08-06T00:24:32;99294.48;;;15.94;91.69
80934;BME280;70392;51.144;17.050;2023-08-06T00:27:06;99296.31;;;15.90;91.32
80934;BME280;70392;51.144;17.050;2023-08-06T00:29:22;99288.25;;;15.92;91.28
80934;BME280;70392;51.144;17.050;2023-08-06T00:31:38;99279.48;;;15.86;91.23
80934;BME280;70392;51.144;17.050;2023-08-06T00:34:00;99268.09;;;15.81;91.39
80934;BME280;70392;51.144;17.050;2023-08-06T00:36:16;99270.81;;;15.77;91.48
80934;BME280;70392;51.144;17.050;2023-08-06T00:38:34;99266.14;;;15.69;91.54
80934;BME280;70392;51.144;17.050;2023-08-06T00:40:50;99259.92;;;15.69;91.84
80934;BME280;70392;51.144;17.050;2023-08-06T00:43:07;99256.52;;;15.71;91.84
80934;BME280;70392;51.144;17.050;2023-08-06T00:45:23;99250.76;;;15.77;91.85
80934;BME280;70392;51.144;17.050;2023-08-06T00:47:41;99245.34;;;15.76;91.77
80934;BME280;70392;51.144;17.050;2023-08-06T00:49:58;99242.15;;;15.78;91.63
80934;BME280;70392;51.144;17.050;2023-08-06T00:52:14;99223.51;;;15.74;91.76
80934;BME280;70392;51.144;17.050;2023-08-06T00:54:37;99209.54;;;15.78;91.73
80934;BME280;70392;51.144;17.050;2023-08-06T00:56:54;99208.50;;;15.77;91.71
80934;BME280;70392;51.144;17.050;2023-08-06T00:59:11;99210.61;;;15.77;91.71
80934;BME280;70392;51.144;17.050;2023-08-06T01:01:39;99201.48;;;15.76;91.58
80934;BME280;70392;51.144;17.050;2023-08-06T01:03:56;99187.23;;;15.78;91.68
80934;BME280;70392;51.144;17.050;2023-08-06T01:06:12;99181.68;;;15.76;91.64
80934;BME280;70392;51.144;17.050;2023-08-06T01:08:50;99173.88;;;15.77;91.79
80934;BME280;70392;51.144;17.050;2023-08-06T01:13:43;99162.85;;;15.83;91.50
80934;BME280;70392;51.144;17.050;2023-08-06T01:16:05;99158.27;;;15.90;91.32
80934;BME280;70392;51.144;17.050;2023-08-06T01:18:28;99155.73;;;15.84;91.36
80934;BME280;70392;51.144;17.050;2023-08-06T01:21:19;99144.77;;;15.86;91.52
80934;BME280;70392;51.144;17.050;2023-08-06T01:23:35;99142.77;;;16.09;90.62
80934;BME280;70392;51.144;17.050;2023-08-06T01:30:47;99122.85;;;15.89;90.73
80934;BME280;70392;51.144;17.050;2023-08-06T01:33:12;99122.92;;;15.82;90.99
80934;BME280;70392;51.144;17.050;2023-08-06T01:35:31;99117.52;;;15.78;91.34
80934;BME280;70392;51.144;17.050;2023-08-06T01:37:48;99116.50;;;15.84;91.35
80934;BME280;70392;51.144;17.050;2023-08-06T01:40:10;99124.37;;;15.78;91.45
80934;BME280;70392;51.144;17.050;2023-08-06T01:42:34;99119.22;;;15.76;91.45
80934;BME280;70392;51.144;17.050;2023-08-06T01:44:50;99109.05;;;15.79;91.49
80934;BME280;70392;51.144;17.050;2023-08-06T01:47:06;99106.83;;;15.80;91.63
80934;BME280;70392;51.144;17.050;2023-08-06T01:49:24;99090.92;;;15.74;91.60
80934;BME280;70392;51.144;17.050;2023-08-06T01:51:45;99089.06;;;15.65;91.67
80934;BME280;70392;51.144;17.050;2023-08-06T01:54:03;99092.08;;;15.68;91.80
80934;BME280;70392;51.144;17.050;2023-08-06T01:56:20;99092.08;;;15.65;91.91
80934;BME280;70392;51.144;17.050;2023-08-06T01:58:36;99094.20;;;15.66;91.92
80934;BME280;70392;51.144;17.050;2023-08-06T02:00:52;99084.01;;;15.64;91.97
80934;BME280;70392;51.144;17.050;2023-08-06T02:03:08;99081.22;;;15.60;92.17
80934;BME280;70392;51.144;17.050;2023-08-06T02:05:25;99089.93;;;15.59;92.21
80934;BME280;70392;51.144;17.050;2023-08-06T02:07:41;99099.70;;;15.59;92.42
80934;BME280;70392;51.144;17.050;2023-08-06T02:09:57;99101.27;;;15.57;92.36
80934;BME280;70392;51.144;17.050;2023-08-06T02:12:15;99092.03;;;15.58;92.60
80934;BME280;70392;51.144;17.050;2023-08-06T02:14:31;99084.80;;;15.50;92.62
80934;BME280;70392;51.144;17.050;2023-08-06T02:16:49;99084.08;;;15.52;92.72
80934;BME280;70392;51.144;17.050;2023-08-06T02:19:06;99073.55;;;15.44;92.75
80934;BME280;70392;51.144;17.050;2023-08-06T02:21:22;99065.53;;;15.44;92.85
80934;BME280;70392;51.144;17.050;2023-08-06T02:23:38;99051.32;;;15.32;92.95
80934;BME280;70392;51.144;17.050;2023-08-06T02:26:02;99044.73;;;15.34;93.10
80934;BME280;70392;51.144;17.050;2023-08-06T02:28:18;99032.46;;;15.35;93.16
80934;BME280;70392;51.144;17.050;2023-08-06T02:30:35;99024.65;;;15.30;93.07
80934;BME280;70392;51.144;17.050;2023-08-06T02:32:51;99020.39;;;15.28;93.19
80934;BME280;70392;51.144;17.050;2023-08-06T02:35:08;99005.19;;;15.19;93.36
80934;BME280;70392;51.144;17.050;2023-08-06T02:37:24;98997.48;;;15.14;93.71
80934;BME280;70392;51.144;17.050;2023-08-06T02:39:41;98974.26;;;15.10;93.67
80934;BME280;70392;51.144;17.050;2023-08-06T02:41:57;98980.71;;;15.10;93.80
80934;BME280;70392;51.144;17.050;2023-08-06T02:44:13;98972.20;;;15.15;93.74
80934;BME280;70392;51.144;17.050;2023-08-06T02:46:31;98968.28;;;15.23;93.47
80934;BME280;70392;51.144;17.050;2023-08-06T02:48:47;98970.05;;;15.18;93.35
80934;BME280;70392;51.144;17.050;2023-08-06T02:51:04;98966.25;;;15.17;93.53
80934;BME280;70392;51.144;17.050;2023-08-06T02:53:23;98969.34;;;15.24;93.36
80934;BME280;70392;51.144;17.050;2023-08-06T02:55:45;98974.31;;;15.20;93.17
80934;BME280;70392;51.144;17.050;2023-08-06T02:58:08;98976.30;;;15.22;93.17
80934;BME280;70392;51.144;17.050;2023-08-06T03:00:24;98970.24;;;15.21;93.14
80934;BME280;70392;51.144;17.050;2023-08-06T03:02:40;98969.18;;;15.22;93.09
80934;BME280;70392;51.144;17.050;2023-08-06T03:05:07;98970.21;;;15.20;93.12
80934;BME280;70392;51.144;17.050;2023-08-06T03:07:24;98977.36;;;15.19;93.09
80934;BME280;70392;51.144;17.050;2023-08-06T03:10:14;98981.92;;;15.09;93.31
80934;BME280;70392;51.144;17.050;2023-08-06T03:12:36;98976.66;;;15.37;92.50
80934;BME280;70392;51.144;17.050;2023-08-06T03:14:53;98978.84;;;15.25;92.36
80934;BME280;70392;51.144;17.050;2023-08-06T03:17:09;98982.88;;;15.17;92.96
80934;BME280;70392;51.144;17.050;2023-08-06T03:19:25;98987.32;;;15.12;93.09
80934;BME280;70392;51.144;17.050;2023-08-06T03:21:50;98995.53;;;15.15;92.97
80934;BME280;70392;51.144;17.050;2023-08-06T03:24:40;98983.11;;;15.18;93.01
80934;BME280;70392;51.144;17.050;2023-08-06T03:26:56;98975.43;;;15.29;92.40
80934;BME280;70392;51.144;17.050;2023-08-06T03:29:49;98957.30;;;15.20;92.48
80934;BME280;70392;51.144;17.050;2023-08-06T03:32:07;98950.03;;;15.43;91.70
80934;BME280;70392;51.144;17.050;2023-08-06T03:34:43;98953.16;;;15.36;91.58
80934;BME280;70392;51.144;17.050;2023-08-06T03:36:59;98953.77;;;15.25;91.94
80934;BME280;70392;51.144;17.050;2023-08-06T03:39:15;98955.45;;;15.20;92.16
80934;BME280;70392;51.144;17.050;2023-08-06T03:41:31;98957.29;;;15.15;92.41
80934;BME280;70392;51.144;17.050;2023-08-06T03:43:47;98946.27;;;15.04;92.71
80934;BME280;70392;51.144;17.050;2023-08-06T03:46:06;98939.05;;;15.09;92.74
80934;BME280;70392;51.144;17.050;2023-08-06T03:48:21;98936.90;;;15.07;92.69
80934;BME280;70392;51.144;17.050;2023-08-06T03:50:39;98933.19;;;15.08;92.78
80934;BME280;70392;51.144;17.050;2023-08-06T03:52:55;98936.90;;;15.12;92.72
80934;BME280;70392;51.144;17.050;2023-08-06T03:55:11;98942.01;;;15.02;92.87
80934;BME280;70392;51.144;17.050;2023-08-06T03:57:26;98936.70;;;14.95;93.13
80934;BME280;70392;51.144;17.050;2023-08-06T04:00:06;98945.05;;;15.00;92.89
80934;BME280;70392;51.144;17.050;2023-08-06T04:02:22;98943.06;;;14.99;92.98
80934;BME280;70392;51.144;17.050;2023-08-06T04:04:41;98942.40;;;15.03;92.88
80934;BME280;70392;51.144;17.050;2023-08-06T04:07:04;98949.31;;;15.07;92.78
80934;BME280;70392;51.144;17.050;2023-08-06T04:09:22;98951.30;;;15.06;92.57
80934;BME280;70392;51.144;17.050;2023-08-06T04:11:38;98944.77;;;14.94;92.84
80934;BME280;70392;51.144;17.050;2023-08-06T04:13:57;98938.55;;;14.96;92.92
80934;BME280;70392;51.144;17.050;2023-08-06T04:16:14;98941.61;;;14.97;92.97
80934;BME280;70392;51.144;17.050;2023-08-06T04:18:31;98935.25;;;14.96;92.97
80934;BME280;70392;51.144;17.050;2023-08-06T04:20:49;98949.32;;;14.91;93.03
80934;BME280;70392;51.144;17.050;2023-08-06T04:23:08;98957.91;;;14.95;93.03
80934;BME280;70392;51.144;17.050;2023-08-06T04:25:24;98956.97;;;14.90;92.93
80934;BME280;70392;51.144;17.050;2023-08-06T04:27:41;98960.42;;;14.92;93.00
80934;BME280;70392;51.144;17.050;2023-08-06T04:30:08;98960.58;;;14.97;92.87
80934;BME280;70392;51.144;17.050;2023-08-06T04:32:27;98960.67;;;14.92;92.88
80934;BME280;70392;51.144;17.050;2023-08-06T04:34:43;98954.76;;;14.93;93.02
80934;BME280;70392;51.144;17.050;2023-08-06T04:37:00;98964.88;;;14.90;93.20
80934;BME280;70392;51.144;17.050;2023-08-06T04:39:18;98971.97;;;14.84;93.38
80934;BME280;70392;51.144;17.050;2023-08-06T04:41:34;98951.91;;;14.79;93.55
80934;BME280;70392;51.144;17.050;2023-08-06T04:44:11;98939.27;;;14.81;93.46
80934;BME280;70392;51.144;17.050;2023-08-06T04:46:27;98942.92;;;14.81;93.69
80934;BME280;70392;51.144;17.050;2023-08-06T04:48:43;98928.85;;;14.83;93.83
80934;BME280;70392;51.144;17.050;2023-08-06T04:51:02;98928.02;;;14.81;93.88
80934;BME280;70392;51.144;17.050;2023-08-06T04:53:18;98915.11;;;14.78;93.94
80934;BME280;70392;51.144;17.050;2023-08-06T04:55:36;98910.80;;;14.86;93.87
80934;BME280;70392;51.144;17.050;2023-08-06T04:57:54;98899.59;;;14.86;93.74
80934;BME280;70392;51.144;17.050;2023-08-06T05:00:11;98912.29;;;14.91;93.61
80934;BME280;70392;51.144;17.050;2023-08-06T05:02:27;98921.21;;;14.86;93.36
80934;BME280;70392;51.144;17.050;2023-08-06T05:04:43;98930.20;;;14.91;93.36
80934;BME280;70392;51.144;17.050;2023-08-06T05:07:03;98920.26;;;14.80;93.51
80934;BME280;70392;51.144;17.050;2023-08-06T05:09:20;98918.71;;;14.84;93.45
80934;BME280;70392;51.144;17.050;2023-08-06T05:11:36;98914.96;;;14.79;93.52
80934;BME280;70392;51.144;17.050;2023-08-06T05:13:52;98916.70;;;14.80;93.56
80934;BME280;70392;51.144;17.050;2023-08-06T05:16:08;98911.41;;;14.81;93.52
80934;BME280;70392;51.144;17.050;2023-08-06T05:18:28;98911.37;;;14.73;93.69
80934;BME280;70392;51.144;17.050;2023-08-06T05:20:45;98899.52;;;14.75;93.76
80934;BME280;70392;51.144;17.050;2023-08-06T05:23:04;98904.92;;;14.75;93.87
80934;BME280;70392;51.144;17.050;2023-08-06T05:25:20;98888.42;;;14.73;93.79
80934;BME280;70392;51.144;17.050;2023-08-06T05:29:55;98873.55;;;14.76;93.72
80934;BME280;70392;51.144;17.050;2023-08-06T05:32:12;98873.19;;;14.78;93.70
80934;BME280;70392;51.144;17.050;2023-08-06T05:34:28;98876.38;;;14.83;93.61
80934;BME280;70392;51.144;17.050;2023-08-06T05:36:44;98891.84;;;14.91;93.41
80934;BME280;70392;51.144;17.050;2023-08-06T05:39:02;98881.39;;;14.82;93.35
80934;BME280;70392;51.144;17.050;2023-08-06T05:41:20;98885.45;;;14.82;93.34
80934;BME280;70392;51.144;17.050;2023-08-06T05:43:43;98884.15;;;14.84;93.45
80934;BME280;70392;51.144;17.050;2023-08-06T05:45:59;98883.23;;;14.88;93.33
80934;BME280;70392;51.144;17.050;2023-08-06T05:48:16;98899.45;;;14.83;93.40
80934;BME280;70392;51.144;17.050;2023-08-06T05:52:36;98896.95;;;14.81;93.34
80934;BME280;70392;51.144;17.050;2023-08-06T05:54:55;98871.31;;;14.78;93.58
80934;BME280;70392;51.144;17.050;2023-08-06T05:57:11;98864.89;;;14.77;93.77
80934;BME280;70392;51.144;17.050;2023-08-06T05:59:28;98866.74;;;14.85;93.68
80934;BME280;70392;51.144;17.050;2023-08-06T06:01:43;98861.59;;;14.84;93.73
80934;BME280;70392;51.144;17.050;2023-08-06T06:04:01;98855.54;;;14.86;93.73
80934;BME280;70392;51.144;17.050;2023-08-06T06:06:23;98854.34;;;14.79;93.61
80934;BME280;70392;51.144;17.050;2023-08-06T06:08:40;98867.97;;;14.85;93.58
80934;BME280;70392;51.144;17.050;2023-08-06T06:10:58;98878.96;;;14.99;93.48
80934;BME280;70392;51.144;17.050;2023-08-06T06:17:23;98889.05;;;14.88;93.19
80934;BME280;70392;51.144;17.050;2023-08-06T06:19:39;98881.35;;;14.86;93.34
80934;BME280;70392;51.144;17.050;2023-08-06T06:21:59;98872.94;;;14.83;93.54
80934;BME280;70392;51.144;17.050;2023-08-06T06:24:15;98872.69;;;14.90;93.55
80934;BME280;70392;51.144;17.050;2023-08-06T06:26:35;98885.34;;;14.82;93.31
80934;BME280;70392;51.144;17.050;2023-08-06T06:31:03;98907.45;;;14.99;93.70
80934;BME280;70392;51.144;17.050;2023-08-06T06:33:19;98903.88;;;15.00;93.35
80934;BME280;70392;51.144;17.050;2023-08-06T06:37:49;98896.08;;;14.95;93.23
80934;BME280;70392;51.144;17.050;2023-08-06T06:42:09;98881.83;;;14.96;93.36
80934;BME280;70392;51.144;17.050;2023-08-06T06:47:09;98871.45;;;15.04;92.81
80934;BME280;70392;51.144;17.050;2023-08-06T06:49:28;98877.89;;;15.30;91.97
80934;BME280;70392;51.144;17.050;2023-08-06T06:51:50;98855.35;;;15.36;91.32
80934;BME280;70392;51.144;17.050;2023-08-06T06:58:16;98872.25;;;15.38;91.73
80934;BME280;70392;51.144;17.050;2023-08-06T07:02:36;98876.21;;;15.37;91.79
80934;BME280;70392;51.144;17.050;2023-08-06T07:04:56;98870.42;;;15.46;91.53
80934;BME280;70392;51.144;17.050;2023-08-06T07:07:46;98869.30;;;15.55;90.90
80934;BME280;70392;51.144;17.050;2023-08-06T07:10:04;98858.77;;;15.68;89.92
80934;BME280;70392;51.144;17.050;2023-08-06T07:12:24;98857.98;;;15.69;90.12
80934;BME280;70392;51.144;17.050;2023-08-06T07:14:40;98862.20;;;15.66;90.23
80934;BME280;70392;51.144;17.050;2023-08-06T07:16:56;98861.80;;;15.65;90.33
80934;BME280;70392;51.144;17.050;2023-08-06T07:21:16;98862.58;;;15.56;90.69
80934;BME280;70392;51.144;17.050;2023-08-06T07:23:35;98855.05;;;15.53;90.63
80934;BME280;70392;51.144;17.050;2023-08-06T07:25:51;98854.59;;;15.48;90.62
80934;BME280;70392;51.144;17.050;2023-08-06T07:32:16;98837.97;;;15.47;91.42
80934;BME280;70392;51.144;17.050;2023-08-06T07:34:35;98852.47;;;15.40;91.40
80934;BME280;70392;51.144;17.050;2023-08-06T07:36:51;98856.85;;;15.44;91.21
80934;BME280;70392;51.144;17.050;2023-08-06T07:39:12;98856.63;;;15.58;90.73
80934;BME280;70392;51.144;17.050;2023-08-06T07:41:28;98852.97;;;15.65;90.37
80934;BME280;70392;51.144;17.050;2023-08-06T07:43:48;98842.79;;;15.66;90.04
80934;BME280;70392;51.144;17.050;2023-08-06T07:46:25;98840.66;;;15.62;90.18
80934;BME280;70392;51.144;17.050;2023-08-06T07:56:59;98842.98;;;15.47;90.85
80934;BME280;70392;51.144;17.050;2023-08-06T07:59:15;98839.02;;;15.38;91.13
80934;BME280;70392;51.144;17.050;2023-08-06T08:01:31;98830.84;;;15.38;91.08
80934;BME280;70392;51.144;17.050;2023-08-06T08:03:47;98824.63;;;15.47;90.87
80934;BME280;70392;51.144;17.050;2023-08-06T08:06:08;98825.55;;;15.49;90.80
80934;BME280;70392;51.144;17.050;2023-08-06T08:08:25;98813.05;;;15.49;90.92
80934;BME280;70392;51.144;17.050;2023-08-06T08:12:47;98802.85;;;15.38;91.17
80934;BME280;70392;51.144;17.050;2023-08-06T08:17:08;98793.73;;;15.35;91.80
80934;BME280;70392;51.144;17.050;2023-08-06T08:21:42;98766.62;;;15.50;91.37
80934;BME280;70392;51.144;17.050;2023-08-06T08:26:03;98745.49;;;15.55;91.11
80934;BME280;70392;51.144;17.050;2023-08-06T08:28:21;98741.34;;;15.49;90.91
80934;BME280;70392;51.144;17.050;2023-08-06T08:30:42;98750.75;;;15.57;90.69
80934;BME280;70392;51.144;17.050;2023-08-06T08:33:33;98746.02;;;15.66;90.45
80934;BME280;70392;51.144;17.050;2023-08-06T08:35:50;98748.51;;;15.89;89.49
80934;BME280;70392;51.144;17.050;2023-08-06T08:38:06;98742.45;;;15.80;89.67
80934;BME280;70392;51.144;17.050;2023-08-06T08:40:34;98740.31;;;15.90;89.30
80934;BME280;70392;51.144;17.050;2023-08-06T08:43:02;98749.68;;;16.07;88.91
80934;BME280;70392;51.144;17.050;2023-08-06T08:45:20;98751.66;;;16.09;88.57
80934;BME280;70392;51.144;17.050;2023-08-06T08:47:39;98756.02;;;16.09;88.64
80934;BME280;70392;51.144;17.050;2023-08-06T08:49:57;98756.02;;;16.11;88.30
80934;BME280;70392;51.144;17.050;2023-08-06T08:52:17;98758.52;;;16.14;88.29
80934;BME280;70392;51.144;17.050;2023-08-06T08:54:35;98757.35;;;15.93;88.59
80934;BME280;70392;51.144;17.050;2023-08-06T08:56:55;98753.41;;;15.90;89.28
80934;BME280;70392;51.144;17.050;2023-08-06T08:59:12;98748.91;;;16.02;89.16
80934;BME280;70392;51.144;17.050;2023-08-06T09:01:32;98752.58;;;16.12;88.80
80934;BME280;70392;51.144;17.050;2023-08-06T09:03:50;98749.68;;;16.21;88.35
80934;BME280;70392;51.144;17.050;2023-08-06T09:06:11;98742.01;;;16.26;88.15
80934;BME280;70392;51.144;17.050;2023-08-06T09:08:36;98738.83;;;16.12;88.57
80934;BME280;70392;51.144;17.050;2023-08-06T09:11:42;98740.70;;;16.00;88.48
80934;BME280;70392;51.144;17.050;2023-08-06T09:14:01;98741.23;;;16.08;88.09
80934;BME280;70392;51.144;17.050;2023-08-06T09:16:18;98743.98;;;16.12;88.12
80934;BME280;70392;51.144;17.050;2023-08-06T09:18:34;98738.19;;;16.15;88.22
80934;BME280;70392;51.144;17.050;2023-08-06T09:20:53;98736.46;;;16.07;88.23
80934;BME280;70392;51.144;17.050;2023-08-06T09:23:10;98742.03;;;16.00;88.42
80934;BME280;70392;51.144;17.050;2023-08-06T09:25:28;98743.37;;;16.02;88.83
80934;BME280;70392;51.144;17.050;2023-08-06T09:27:47;98750.33;;;16.04;88.60
80934;BME280;70392;51.144;17.050;2023-08-06T09:34:20;98734.64;;;15.81;89.26
80934;BME280;70392;51.144;17.050;2023-08-06T09:36:42;98737.18;;;15.79;89.70
80934;BME280;70392;51.144;17.050;2023-08-06T09:43:07;98737.44;;;15.71;89.87
80934;BME280;70392;51.144;17.050;2023-08-06T09:49:49;98742.06;;;15.60;90.46
80934;BME280;70392;51.144;17.050;2023-08-06T09:52:12;98745.89;;;15.75;90.20
80934;BME280;70392;51.144;17.050;2023-08-06T09:54:30;98743.65;;;15.77;90.18
80934;BME280;70392;51.144;17.050;2023-08-06T09:56:48;98750.09;;;15.70;90.31
80934;BME280;70392;51.144;17.050;2023-08-06T09:59:07;98762.01;;;15.75;90.41
80934;BME280;70392;51.144;17.050;2023-08-06T10:01:24;98763.85;;;15.71;90.23
80934;BME280;70392;51.144;17.050;2023-08-06T10:03:40;98759.86;;;15.67;90.45
80934;BME280;70392;51.144;17.050;2023-08-06T10:06:07;98773.09;;;15.63;90.56
80934;BME280;70392;51.144;17.050;2023-08-06T10:08:24;98764.24;;;15.62;90.53
80934;BME280;70392;51.144;17.050;2023-08-06T10:10:41;98765.95;;;15.60;90.94
80934;BME280;70392;51.144;17.050;2023-08-06T10:12:58;98757.89;;;15.53;91.14
80934;BME280;70392;51.144;17.050;2023-08-06T10:15:26;98752.70;;;15.47;91.50
80934;BME280;70392;51.144;17.050;2023-08-06T10:17:44;98751.16;;;15.56;91.19
80934;BME280;70392;51.144;17.050;2023-08-06T10:20:07;98750.23;;;15.54;91.06
80934;BME280;70392;51.144;17.050;2023-08-06T10:26:36;98714.19;;;15.62;91.21
80934;BME280;70392;51.144;17.050;2023-08-06T10:30:57;98702.66;;;15.43;91.78
80934;BME280;70392;51.144;17.050;2023-08-06T10:42:47;98696.72;;;16.01;89.65
80934;BME280;70392;51.144;17.050;2023-08-06T10:45:15;98687.88;;;16.05;89.60
80934;BME280;70392;51.144;17.050;2023-08-06T10:47:38;98691.69;;;16.03;89.60
80934;BME280;70392;51.144;17.050;2023-08-06T10:49:59;98687.99;;;16.05;89.33
80934;BME280;70392;51.144;17.050;2023-08-06T10:52:17;98679.11;;;16.14;89.13
80934;BME280;70392;51.144;17.050;2023-08-06T10:54:36;98679.37;;;16.14;89.31
80934;BME280;70392;51.144;17.050;2023-08-06T10:56:53;98685.05;;;16.11;89.46
80934;BME280;70392;51.144;17.050;2023-08-06T10:59:10;98674.48;;;16.14;89.14
80934;BME280;70392;51.144;17.050;2023-08-06T11:01:29;98669.02;;;16.29;88.79
80934;BME280;70392;51.144;17.050;2023-08-06T11:04:06;98673.22;;;16.35;88.09
80934;BME280;70392;51.144;17.050;2023-08-06T11:06:26;98671.18;;;16.48;87.81
80934;BME280;70392;51.144;17.050;2023-08-06T11:08:51;98665.91;;;16.49;87.42
80934;BME280;70392;51.144;17.050;2023-08-06T11:11:14;98657.99;;;16.39;87.96
80934;BME280;70392;51.144;17.050;2023-08-06T11:13:32;98661.13;;;16.41;87.82
80934;BME280;70392;51.144;17.050;2023-08-06T11:16:07;98659.35;;;16.68;87.40
80934;BME280;70392;51.144;17.050;2023-08-06T11:18:23;98659.73;;;16.74;87.25
80934;BME280;70392;51.144;17.050;2023-08-06T11:20:39;98664.46;;;16.82;86.69
80934;BME280;70392;51.144;17.050;2023-08-06T11:23:05;98662.74;;;16.78;86.63
80934;BME280;70392;51.144;17.050;2023-08-06T11:25:23;98656.15;;;16.41;87.77
80934;BME280;70392;51.144;17.050;2023-08-06T11:27:39;98654.47;;;16.30;88.35
80934;BME280;70392;51.144;17.050;2023-08-06T11:29:58;98672.32;;;16.31;88.60
80934;BME280;70392;51.144;17.050;2023-08-06T11:32:18;98651.77;;;16.44;88.36
80934;BME280;70392;51.144;17.050;2023-08-06T11:34:35;98658.01;;;16.45;88.16
80934;BME280;70392;51.144;17.050;2023-08-06T11:36:51;98657.54;;;16.54;87.84
80934;BME280;70392;51.144;17.050;2023-08-06T11:39:16;98648.06;;;16.47;87.77
80934;BME280;70392;51.144;17.050;2023-08-06T11:41:32;98655.58;;;16.50;87.48
80934;BME280;70392;51.144;17.050;2023-08-06T11:43:49;98661.84;;;16.46;87.78
80934;BME280;70392;51.144;17.050;2023-08-06T11:46:23;98657.27;;;16.58;87.41
80934;BME280;70392;51.144;17.050;2023-08-06T11:51:41;98658.27;;;16.42;88.43
80934;BME280;70392;51.144;17.050;2023-08-06T11:53:58;98661.18;;;16.73;87.69
80934;BME280;70392;51.144;17.050;2023-08-06T11:56:15;98662.63;;;16.79;87.09
80934;BME280;70392;51.144;17.050;2023-08-06T11:58:52;98681.87;;;16.56;87.69
80934;BME280;70392;51.144;17.050;2023-08-06T12:01:08;98666.63;;;16.65;87.49
80934;BME280;70392;51.144;17.050;2023-08-06T12:03:29;98667.27;;;16.74;87.52
80934;BME280;70392;51.144;17.050;2023-08-06T12:05:53;98669.85;;;16.59;87.73
80934;BME280;70392;51.144;17.050;2023-08-06T12:08:09;98677.77;;;16.58;87.86
80934;BME280;70392;51.144;17.050;2023-08-06T12:10:32;98667.50;;;16.44;88.03
80934;BME280;70392;51.144;17.050;2023-08-06T12:12:50;98683.66;;;16.38;88.47
80934;BME280;70392;51.144;17.050;2023-08-06T12:15:09;98685.12;;;16.38;88.54
80934;BME280;70392;51.144;17.050;2023-08-06T12:17:26;98680.67;;;16.22;88.87
80934;BME280;70392;51.144;17.050;2023-08-06T12:19:45;98692.06;;;16.05;89.51
80934;BME280;70392;51.144;17.050;2023-08-06T12:22:08;98684.11;;;16.31;88.99
80934;BME280;70392;51.144;17.050;2023-08-06T12:24:25;98701.03;;;16.18;89.09
80934;BME280;70392;51.144;17.050;2023-08-06T12:26:41;98694.16;;;16.22;88.86
80934;BME280;70392;51.144;17.050;2023-08-06T12:29:00;98703.11;;;16.30;89.00
80934;BME280;70392;51.144;17.050;2023-08-06T12:31:16;98703.39;;;16.27;89.29
80934;BME280;70392;51.144;17.050;2023-08-06T12:33:35;98712.53;;;16.23;89.01
80934;BME280;70392;51.144;17.050;2023-08-06T12:35:54;98697.11;;;16.13;89.17
80934;BME280;70392;51.144;17.050;2023-08-06T12:38:11;98705.65;;;16.21;89.48
80934;BME280;70392;51.144;17.050;2023-08-06T12:40:29;98710.28;;;16.21;89.08
80934;BME280;70392;51.144;17.050;2023-08-06T12:42:50;98708.86;;;16.10;89.38
80934;BME280;70392;51.144;17.050;2023-08-06T12:45:07;98730.36;;;16.25;89.24
80934;BME280;70392;51.144;17.050;2023-08-06T12:47:23;98721.80;;;16.13;89.54
80934;BME280;70392;51.144;17.050;2023-08-06T12:50:13;98726.72;;;16.02;89.61
80934;BME280;70392;51.144;17.050;2023-08-06T12:52:49;98736.15;;;16.34;88.85
80934;BME280;70392;51.144;17.050;2023-08-06T12:55:06;98726.27;;;16.38;88.67
80934;BME280;70392;51.144;17.050;2023-08-06T12:57:30;98733.39;;;16.26;89.23
80934;BME280;70392;51.144;17.050;2023-08-06T12:59:48;98738.24;;;16.50;88.58
80934;BME280;70392;51.144;17.050;2023-08-06T13:02:15;98728.45;;;16.52;88.00
80934;BME280;70392;51.144;17.050;2023-08-06T16:00:13;98904.63;;;19.42;71.86
80934;BME280;70392;51.144;17.050;2023-08-06T16:02:31;98896.18;;;18.80;74.27
80934;BME280;70392;51.144;17.050;2023-08-06T16:04:47;98877.75;;;17.40;79.07
80934;BME280;70392;51.144;17.050;2023-08-06T16:07:03;98883.09;;;16.83;82.51
80934;BME280;70392;51.144;17.050;2023-08-06T16:09:23;98876.65;;;16.58;83.62
80934;BME280;70392;51.144;17.050;2023-08-06T16:11:40;98874.02;;;16.32;85.36
80934;BME280;70392;51.144;17.050;2023-08-06T16:13:56;98867.80;;;16.27;85.96
80934;BME280;70392;51.144;17.050;2023-08-06T16:16:12;98883.02;;;16.25;86.54
80934;BME280;70392;51.144;17.050;2023-08-06T16:18:29;98890.79;;;16.21;86.66
80934;BME280;70392;51.144;17.050;2023-08-06T16:20:45;98890.13;;;16.14;86.80
80934;BME280;70392;51.144;17.050;2023-08-06T16:23:04;98900.05;;;16.12;86.96
80934;BME280;70392;51.144;17.050;2023-08-06T16:25:22;98894.10;;;16.18;87.04
80934;BME280;70392;51.144;17.050;2023-08-06T16:27:40;98892.79;;;16.21;87.01
80934;BME280;70392;51.144;17.050;2023-08-06T16:29:56;98899.51;;;16.06;87.68
80934;BME280;70392;51.144;17.050;2023-08-06T16:32:15;98909.55;;;16.07;87.62